sensor_id;sensor_type;location;lat;lon;timestamp;temperature;humidity
10538;DHT22;5317;49.048;8.468;2023-01-01T00:00:16;20.20;54.10
10538;DHT22;5317;49.048;8.468;2023-01-01T00:02:43;20.20;54.00
10538;DHT22;5317;49.048;8.468;2023-01-01T00:05:10;20.20;54.00
10538;DHT22;5317;49.048;8.468;2023-01-01T00:07:37;20.20;54.10
10538;DHT22;5317;49.048;8.468;2023-01-01T00:10:04;20.20;54.20
10538;DHT22;5317;49.048;8.468;2023-01-01T00:12:49;20.20;54.10
10538;DHT22;5317;49.048;8.468;2023-01-01T00:15:17;20.20;54.10
10538;DHT22;5317;49.048;8.468;2023-01-01T00:17:44;20.20;53.90
10538;DHT22;5317;49.048;8.468;2023-01-01T00:20:12;20.30;54.10
10538;DHT22;5317;49.048;8.468;2023-01-01T00:22:39;20.30;53.90
10538;DHT22;5317;49.048;8.468;2023-01-01T00:25:06;20.30;53.90
10538;DHT22;5317;49.048;8.468;2023-01-01T00:27:34;20.30;54.00
10538;DHT22;5317;49.048;8.468;2023-01-01T00:30:00;20.30;54.00
10538;DHT22;5317;49.048;8.468;2023-01-01T00:32:30;20.30;53.90
10538;DHT22;5317;49.048;8.468;2023-01-01T00:34:57;20.30;53.90
10538;DHT22;5317;49.048;8.468;2023-01-01T00:37:24;20.30;53.90
10538;DHT22;5317;49.048;8.468;2023-01-01T00:39:51;20.20;53.80
10538;DHT22;5317;49.048;8.468;2023-01-01T00:42:17;20.10;53.80
10538;DHT22;5317;49.048;8.468;2023-01-01T00:44:46;20.20;54.60
10538;DHT22;5317;49.048;8.468;2023-01-01T00:47:13;20.20;54.10
10538;DHT22;5317;49.048;8.468;2023-01-01T00:49:41;20.30;54.00
10538;DHT22;5317;49.048;8.468;2023-01-01T00:52:08;20.30;53.90
10538;DHT22;5317;49.048;8.468;2023-01-01T00:54:35;20.10;53.70
10538;DHT22;5317;49.048;8.468;2023-01-01T00:57:02;20.20;53.80
10538;DHT22;5317;49.048;8.468;2023-01-01T00:59:29;20.30;53.90
10538;DHT22;5317;49.048;8.468;2023-01-01T01:01:55;20.20;53.80
10538;DHT22;5317;49.048;8.468;2023-01-01T01:04:22;20.20;53.80
10538;DHT22;5317;49.048;8.468;2023-01-01T01:06:51;20.20;53.90
10538;DHT22;5317;49.048;8.468;2023-01-01T01:09:18;20.10;53.80
10538;DHT22;5317;49.048;8.468;2023-01-01T01:11:45;20.10;53.80
10538;DHT22;5317;49.048;8.468;2023-01-01T01:14:12;20.10;53.90
10538;DHT22;5317;49.048;8.468;2023-01-01T01:16:39;20.10;53.90
10538;DHT22;5317;49.048;8.468;2023-01-01T01:19:06;20.00;54.00
10538;DHT22;5317;49.048;8.468;2023-01-01T01:21:38;19.90;54.00
10538;DHT22;5317;49.048;8.468;2023-01-01T01:24:08;19.90;54.10
10538;DHT22;5317;49.048;8.468;2023-01-01T01:26:35;19.80;54.20
10538;DHT22;5317;49.048;8.468;2023-01-01T01:29:03;19.80;54.30
10538;DHT22;5317;49.048;8.468;2023-01-01T01:31:32;19.70;54.40
10538;DHT22;5317;49.048;8.468;2023-01-01T01:33:59;19.70;54.50
10538;DHT22;5317;49.048;8.468;2023-01-01T01:36:27;19.60;54.50
10538;DHT22;5317;49.048;8.468;2023-01-01T01:38:54;19.50;54.60
10538;DHT22;5317;49.048;8.468;2023-01-01T01:41:26;19.50;54.70
10538;DHT22;5317;49.048;8.468;2023-01-01T01:43:56;19.40;54.80
10538;DHT22;5317;49.048;8.468;2023-01-01T01:46:31;19.30;54.90
10538;DHT22;5317;49.048;8.468;2023-01-01T01:49:01;19.30;55.00
10538;DHT22;5317;49.048;8.468;2023-01-01T01:51:32;19.10;55.10
10538;DHT22;5317;49.048;8.468;2023-01-01T01:54:02;19.00;55.30
10538;DHT22;5317;49.048;8.468;2023-01-01T01:56:38;19.00;55.40
10538;DHT22;5317;49.048;8.468;2023-01-01T01:59:07;19.00;56.00
10538;DHT22;5317;49.048;8.468;2023-01-01T02:01:34;19.00;55.60
10538;DHT22;5317;49.048;8.468;2023-01-01T02:04:02;19.00;55.60
10538;DHT22;5317;49.048;8.468;2023-01-01T02:06:30;19.00;55.70
10538;DHT22;5317;49.048;8.468;2023-01-01T02:09:01;19.00;55.70
10538;DHT22;5317;49.048;8.468;2023-01-01T02:11:28;18.90;55.70
10538;DHT22;5317;49.048;8.468;2023-01-01T02:13:58;18.80;55.80
10538;DHT22;5317;49.048;8.468;2023-01-01T02:16:32;18.70;55.80
10538;DHT22;5317;49.048;8.468;2023-01-01T02:19:09;18.60;56.00
10538;DHT22;5317;49.048;8.468;2023-01-01T02:21:45;18.60;56.40
10538;DHT22;5317;49.048;8.468;2023-01-01T02:27:14;18.40;56.30
10538;DHT22;5317;49.048;8.468;2023-01-01T02:29:46;18.60;56.50
10538;DHT22;5317;49.048;8.468;2023-01-01T02:32:18;18.60;56.40
10538;DHT22;5317;49.048;8.468;2023-01-01T02:34:48;18.60;57.00
10538;DHT22;5317;49.048;8.468;2023-01-01T02:37:17;18.70;56.40
10538;DHT22;5317;49.048;8.468;2023-01-01T02:39:49;18.70;56.40
10538;DHT22;5317;49.048;8.468;2023-01-01T02:42:18;18.70;56.30
10538;DHT22;5317;49.048;8.468;2023-01-01T02:44:48;18.80;56.40
10538;DHT22;5317;49.048;8.468;2023-01-01T02:47:19;18.80;56.50
10538;DHT22;5317;49.048;8.468;2023-01-01T02:49:55;18.80;56.50
10538;DHT22;5317;49.048;8.468;2023-01-01T02:52:40;18.80;56.50
10538;DHT22;5317;49.048;8.468;2023-01-01T02:55:15;18.80;56.50
10538;DHT22;5317;49.048;8.468;2023-01-01T02:57:51;18.90;56.60
10538;DHT22;5317;49.048;8.468;2023-01-01T03:00:21;18.90;56.40
10538;DHT22;5317;49.048;8.468;2023-01-01T03:03:11;19.00;56.30
10538;DHT22;5317;49.048;8.468;2023-01-01T03:05:46;19.00;56.20
10538;DHT22;5317;49.048;8.468;2023-01-01T03:08:39;19.00;56.10
10538;DHT22;5317;49.048;8.468;2023-01-01T03:11:13;19.00;55.90
10538;DHT22;5317;49.048;8.468;2023-01-01T03:13:45;19.00;55.90
10538;DHT22;5317;49.048;8.468;2023-01-01T03:16:18;19.00;55.80
10538;DHT22;5317;49.048;8.468;2023-01-01T03:18:51;19.10;55.60
10538;DHT22;5317;49.048;8.468;2023-01-01T03:21:37;19.10;55.60
10538;DHT22;5317;49.048;8.468;2023-01-01T03:24:04;19.10;55.40
10538;DHT22;5317;49.048;8.468;2023-01-01T03:26:33;19.10;55.40
10538;DHT22;5317;49.048;8.468;2023-01-01T03:29:02;19.10;55.40
10538;DHT22;5317;49.048;8.468;2023-01-01T03:31:41;19.10;55.20
10538;DHT22;5317;49.048;8.468;2023-01-01T03:34:12;19.10;55.00
10538;DHT22;5317;49.048;8.468;2023-01-01T03:36:43;19.20;54.90
10538;DHT22;5317;49.048;8.468;2023-01-01T03:39:14;19.20;54.80
10538;DHT22;5317;49.048;8.468;2023-01-01T03:41:46;19.20;54.80
10538;DHT22;5317;49.048;8.468;2023-01-01T03:44:19;19.20;54.50
10538;DHT22;5317;49.048;8.468;2023-01-01T03:46:49;19.20;54.70
10538;DHT22;5317;49.048;8.468;2023-01-01T03:49:16;19.20;54.50
10538;DHT22;5317;49.048;8.468;2023-01-01T03:51:56;19.20;54.30
10538;DHT22;5317;49.048;8.468;2023-01-01T03:54:35;19.20;54.20
10538;DHT22;5317;49.048;8.468;2023-01-01T03:57:08;19.20;54.10
10538;DHT22;5317;49.048;8.468;2023-01-01T03:59:41;19.20;53.90
10538;DHT22;5317;49.048;8.468;2023-01-01T04:02:13;19.20;53.80
10538;DHT22;5317;49.048;8.468;2023-01-01T04:04:43;19.20;53.60
10538;DHT22;5317;49.048;8.468;2023-01-01T04:07:11;19.20;53.50
10538;DHT22;5317;49.048;8.468;2023-01-01T04:09:39;19.20;53.40
10538;DHT22;5317;49.048;8.468;2023-01-01T04:12:09;19.30;53.20
10538;DHT22;5317;49.048;8.468;2023-01-01T04:14:38;19.30;53.10
10538;DHT22;5317;49.048;8.468;2023-01-01T04:17:06;19.30;53.00
10538;DHT22;5317;49.048;8.468;2023-01-01T04:19:35;19.30;52.80
10538;DHT22;5317;49.048;8.468;2023-01-01T04:22:02;19.30;52.80
10538;DHT22;5317;49.048;8.468;2023-01-01T04:24:29;19.30;52.80
10538;DHT22;5317;49.048;8.468;2023-01-01T04:26:56;19.40;52.80
10538;DHT22;5317;49.048;8.468;2023-01-01T04:29:23;19.40;52.50
10538;DHT22;5317;49.048;8.468;2023-01-01T04:31:50;19.40;52.30
10538;DHT22;5317;49.048;8.468;2023-01-01T04:34:17;19.40;52.30
10538;DHT22;5317;49.048;8.468;2023-01-01T04:36:47;19.40;52.40
10538;DHT22;5317;49.048;8.468;2023-01-01T04:39:14;19.40;52.30
10538;DHT22;5317;49.048;8.468;2023-01-01T04:41:45;19.40;52.20
10538;DHT22;5317;49.048;8.468;2023-01-01T04:44:12;19.40;52.20
10538;DHT22;5317;49.048;8.468;2023-01-01T04:46:38;19.40;52.30
10538;DHT22;5317;49.048;8.468;2023-01-01T04:49:07;19.50;52.20
10538;DHT22;5317;49.048;8.468;2023-01-01T04:51:33;19.40;52.10
10538;DHT22;5317;49.048;8.468;2023-01-01T04:54:02;19.50;52.20
10538;DHT22;5317;49.048;8.468;2023-01-01T04:56:29;19.50;52.10
10538;DHT22;5317;49.048;8.468;2023-01-01T04:58:55;19.40;51.90
10538;DHT22;5317;49.048;8.468;2023-01-01T05:01:24;19.40;52.10
10538;DHT22;5317;49.048;8.468;2023-01-01T05:03:52;19.40;52.10
10538;DHT22;5317;49.048;8.468;2023-01-01T05:06:19;19.50;52.10
10538;DHT22;5317;49.048;8.468;2023-01-01T05:08:48;19.40;51.90
10538;DHT22;5317;49.048;8.468;2023-01-01T05:11:18;19.40;52.10
10538;DHT22;5317;49.048;8.468;2023-01-01T05:13:47;19.40;52.00
10538;DHT22;5317;49.048;8.468;2023-01-01T05:16:15;19.40;52.10
10538;DHT22;5317;49.048;8.468;2023-01-01T05:18:43;19.40;52.00
10538;DHT22;5317;49.048;8.468;2023-01-01T05:21:12;19.40;52.10
10538;DHT22;5317;49.048;8.468;2023-01-01T05:23:39;19.40;52.00
10538;DHT22;5317;49.048;8.468;2023-01-01T05:26:10;19.40;52.00
10538;DHT22;5317;49.048;8.468;2023-01-01T05:28:38;19.40;52.10
10538;DHT22;5317;49.048;8.468;2023-01-01T05:31:07;19.40;52.00
10538;DHT22;5317;49.048;8.468;2023-01-01T05:33:34;19.40;52.00
10538;DHT22;5317;49.048;8.468;2023-01-01T05:36:02;19.40;52.10
10538;DHT22;5317;49.048;8.468;2023-01-01T05:38:29;19.30;52.00
10538;DHT22;5317;49.048;8.468;2023-01-01T05:41:04;19.30;52.00
10538;DHT22;5317;49.048;8.468;2023-01-01T05:43:31;19.40;52.00
10538;DHT22;5317;49.048;8.468;2023-01-01T05:46:00;19.40;52.10
10538;DHT22;5317;49.048;8.468;2023-01-01T05:48:27;19.40;52.10
10538;DHT22;5317;49.048;8.468;2023-01-01T05:51:00;19.30;52.10
10538;DHT22;5317;49.048;8.468;2023-01-01T05:53:27;19.30;52.00
10538;DHT22;5317;49.048;8.468;2023-01-01T05:55:55;19.30;52.10
10538;DHT22;5317;49.048;8.468;2023-01-01T05:58:21;19.30;52.10
10538;DHT22;5317;49.048;8.468;2023-01-01T06:00:48;19.30;52.30
10538;DHT22;5317;49.048;8.468;2023-01-01T06:03:16;19.30;52.10
10538;DHT22;5317;49.048;8.468;2023-01-01T06:05:43;19.20;52.10
10538;DHT22;5317;49.048;8.468;2023-01-01T06:08:10;19.20;52.30
10538;DHT22;5317;49.048;8.468;2023-01-01T06:10:37;19.30;52.50
10538;DHT22;5317;49.048;8.468;2023-01-01T06:13:04;19.30;52.30
10538;DHT22;5317;49.048;8.468;2023-01-01T06:15:31;19.30;52.30
10538;DHT22;5317;49.048;8.468;2023-01-01T06:17:58;19.20;52.40
10538;DHT22;5317;49.048;8.468;2023-01-01T06:20:26;19.30;52.40
10538;DHT22;5317;49.048;8.468;2023-01-01T06:22:53;19.20;52.40
10538;DHT22;5317;49.048;8.468;2023-01-01T06:25:20;19.20;52.50
10538;DHT22;5317;49.048;8.468;2023-01-01T06:27:47;19.20;52.60
10538;DHT22;5317;49.048;8.468;2023-01-01T06:30:14;19.20;52.70
10538;DHT22;5317;49.048;8.468;2023-01-01T06:32:41;19.20;52.70
10538;DHT22;5317;49.048;8.468;2023-01-01T06:35:08;19.10;52.60
10538;DHT22;5317;49.048;8.468;2023-01-01T06:37:36;19.10;52.60
10538;DHT22;5317;49.048;8.468;2023-01-01T06:40:04;19.10;52.60
10538;DHT22;5317;49.048;8.468;2023-01-01T06:42:31;19.10;52.60
10538;DHT22;5317;49.048;8.468;2023-01-01T06:44:58;19.10;52.60
10538;DHT22;5317;49.048;8.468;2023-01-01T06:47:25;19.10;52.60
10538;DHT22;5317;49.048;8.468;2023-01-01T06:49:52;19.00;52.80
10538;DHT22;5317;49.048;8.468;2023-01-01T06:52:19;19.00;53.00
10538;DHT22;5317;49.048;8.468;2023-01-01T06:54:47;18.90;53.10
10538;DHT22;5317;49.048;8.468;2023-01-01T06:57:14;18.90;53.20
10538;DHT22;5317;49.048;8.468;2023-01-01T06:59:41;18.90;53.30
10538;DHT22;5317;49.048;8.468;2023-01-01T07:02:09;18.90;53.30
10538;DHT22;5317;49.048;8.468;2023-01-01T07:04:37;18.90;53.30
10538;DHT22;5317;49.048;8.468;2023-01-01T07:07:04;18.90;53.30
10538;DHT22;5317;49.048;8.468;2023-01-01T07:09:31;18.80;53.40
10538;DHT22;5317;49.048;8.468;2023-01-01T07:11:59;18.80;53.40
10538;DHT22;5317;49.048;8.468;2023-01-01T07:14:26;18.80;53.60
10538;DHT22;5317;49.048;8.468;2023-01-01T07:16:53;18.80;53.50
10538;DHT22;5317;49.048;8.468;2023-01-01T07:19:19;18.70;53.60
10538;DHT22;5317;49.048;8.468;2023-01-01T07:21:51;18.60;53.70
10538;DHT22;5317;49.048;8.468;2023-01-01T07:24:18;18.50;53.90
10538;DHT22;5317;49.048;8.468;2023-01-01T07:26:46;18.50;54.20
10538;DHT22;5317;49.048;8.468;2023-01-01T07:29:14;18.40;54.20
10538;DHT22;5317;49.048;8.468;2023-01-01T07:31:43;18.40;54.30
10538;DHT22;5317;49.048;8.468;2023-01-01T07:34:13;18.40;54.30
10538;DHT22;5317;49.048;8.468;2023-01-01T07:36:40;18.40;54.60
10538;DHT22;5317;49.048;8.468;2023-01-01T07:39:07;18.30;54.70
10538;DHT22;5317;49.048;8.468;2023-01-01T07:41:34;18.30;54.80
10538;DHT22;5317;49.048;8.468;2023-01-01T07:44:01;18.30;54.80
10538;DHT22;5317;49.048;8.468;2023-01-01T07:46:29;18.40;54.80
10538;DHT22;5317;49.048;8.468;2023-01-01T07:48:56;18.40;54.80
10538;DHT22;5317;49.048;8.468;2023-01-01T07:51:23;18.40;54.80
10538;DHT22;5317;49.048;8.468;2023-01-01T07:53:50;18.40;54.80
10538;DHT22;5317;49.048;8.468;2023-01-01T07:56:17;18.40;54.80
10538;DHT22;5317;49.048;8.468;2023-01-01T07:58:44;18.40;55.00
10538;DHT22;5317;49.048;8.468;2023-01-01T08:01:11;18.40;55.00
10538;DHT22;5317;49.048;8.468;2023-01-01T08:03:40;18.50;55.00
10538;DHT22;5317;49.048;8.468;2023-01-01T08:06:08;18.50;54.90
10538;DHT22;5317;49.048;8.468;2023-01-01T08:08:35;18.50;55.00
10538;DHT22;5317;49.048;8.468;2023-01-01T08:11:03;18.60;54.90
10538;DHT22;5317;49.048;8.468;2023-01-01T08:13:30;18.60;54.80
10538;DHT22;5317;49.048;8.468;2023-01-01T08:15:57;18.70;55.00
10538;DHT22;5317;49.048;8.468;2023-01-01T08:18:24;18.70;55.00
10538;DHT22;5317;49.048;8.468;2023-01-01T08:20:52;18.70;55.00
10538;DHT22;5317;49.048;8.468;2023-01-01T08:23:21;18.70;55.50
10538;DHT22;5317;49.048;8.468;2023-01-01T08:25:48;18.80;55.10
10538;DHT22;5317;49.048;8.468;2023-01-01T08:28:15;18.70;55.00
10538;DHT22;5317;49.048;8.468;2023-01-01T08:30:42;18.80;55.20
10538;DHT22;5317;49.048;8.468;2023-01-01T08:33:09;18.80;55.20
10538;DHT22;5317;49.048;8.468;2023-01-01T08:35:36;18.80;55.20
10538;DHT22;5317;49.048;8.468;2023-01-01T08:38:08;18.80;55.20
10538;DHT22;5317;49.048;8.468;2023-01-01T08:40:36;18.90;55.20
10538;DHT22;5317;49.048;8.468;2023-01-01T08:43:03;18.90;55.20
10538;DHT22;5317;49.048;8.468;2023-01-01T08:45:30;19.00;55.10
10538;DHT22;5317;49.048;8.468;2023-01-01T08:47:56;19.10;55.00
10538;DHT22;5317;49.048;8.468;2023-01-01T08:50:24;19.10;54.90
10538;DHT22;5317;49.048;8.468;2023-01-01T08:52:51;19.10;54.70
10538;DHT22;5317;49.048;8.468;2023-01-01T08:55:20;19.10;54.70
10538;DHT22;5317;49.048;8.468;2023-01-01T08:57:46;19.10;54.70
10538;DHT22;5317;49.048;8.468;2023-01-01T09:00:14;19.20;54.70
10538;DHT22;5317;49.048;8.468;2023-01-01T09:02:41;19.20;54.80
10538;DHT22;5317;49.048;8.468;2023-01-01T09:05:08;19.20;54.80
10538;DHT22;5317;49.048;8.468;2023-01-01T09:07:35;19.30;55.50
10538;DHT22;5317;49.048;8.468;2023-01-01T09:10:03;19.40;54.80
10538;DHT22;5317;49.048;8.468;2023-01-01T09:12:31;19.40;54.60
10538;DHT22;5317;49.048;8.468;2023-01-01T09:14:58;19.50;54.50
10538;DHT22;5317;49.048;8.468;2023-01-01T09:17:25;19.60;54.40
10538;DHT22;5317;49.048;8.468;2023-01-01T09:19:52;19.60;54.30
10538;DHT22;5317;49.048;8.468;2023-01-01T09:22:18;19.80;54.50
10538;DHT22;5317;49.048;8.468;2023-01-01T09:24:45;19.80;54.10
10538;DHT22;5317;49.048;8.468;2023-01-01T09:27:12;19.90;54.10
10538;DHT22;5317;49.048;8.468;2023-01-01T09:29:40;19.90;54.00
10538;DHT22;5317;49.048;8.468;2023-01-01T09:32:07;20.10;54.10
10538;DHT22;5317;49.048;8.468;2023-01-01T09:34:34;20.20;53.50
10538;DHT22;5317;49.048;8.468;2023-01-01T09:37:01;20.30;53.60
10538;DHT22;5317;49.048;8.468;2023-01-01T09:39:28;20.30;53.40
10538;DHT22;5317;49.048;8.468;2023-01-01T09:42:13;20.40;53.40
10538;DHT22;5317;49.048;8.468;2023-01-01T09:47:44;20.60;52.70
10538;DHT22;5317;49.048;8.468;2023-01-01T09:50:14;20.70;52.60
10538;DHT22;5317;49.048;8.468;2023-01-01T09:52:47;20.70;52.80
10538;DHT22;5317;49.048;8.468;2023-01-01T09:55:21;20.70;52.10
10538;DHT22;5317;49.048;8.468;2023-01-01T09:57:50;20.70;51.70
10538;DHT22;5317;49.048;8.468;2023-01-01T10:00:18;20.50;51.70
10538;DHT22;5317;49.048;8.468;2023-01-01T10:03:05;20.50;52.00
10538;DHT22;5317;49.048;8.468;2023-01-01T10:05:40;20.50;51.70
10538;DHT22;5317;49.048;8.468;2023-01-01T10:08:18;20.40;51.80
10538;DHT22;5317;49.048;8.468;2023-01-01T10:10:52;20.50;52.20
10538;DHT22;5317;49.048;8.468;2023-01-01T10:13:27;20.60;52.10
10538;DHT22;5317;49.048;8.468;2023-01-01T10:15:59;20.80;51.90
10538;DHT22;5317;49.048;8.468;2023-01-01T10:18:31;21.00;51.40
10538;DHT22;5317;49.048;8.468;2023-01-01T10:21:06;21.00;51.20
10538;DHT22;5317;49.048;8.468;2023-01-01T10:23:39;21.10;51.80
10538;DHT22;5317;49.048;8.468;2023-01-01T10:26:10;20.90;51.20
10538;DHT22;5317;49.048;8.468;2023-01-01T10:28:42;20.90;51.00
10538;DHT22;5317;49.048;8.468;2023-01-01T10:31:15;21.00;51.00
10538;DHT22;5317;49.048;8.468;2023-01-01T10:33:45;21.10;51.10
10538;DHT22;5317;49.048;8.468;2023-01-01T10:36:16;21.20;51.00
10538;DHT22;5317;49.048;8.468;2023-01-01T10:38:45;21.40;50.70
10538;DHT22;5317;49.048;8.468;2023-01-01T10:41:12;21.50;50.60
10538;DHT22;5317;49.048;8.468;2023-01-01T10:43:41;21.70;50.50
10538;DHT22;5317;49.048;8.468;2023-01-01T10:46:11;21.80;50.20
10538;DHT22;5317;49.048;8.468;2023-01-01T10:48:38;21.80;50.00
10538;DHT22;5317;49.048;8.468;2023-01-01T10:51:15;21.90;50.20
10538;DHT22;5317;49.048;8.468;2023-01-01T10:53:49;22.00;49.80
10538;DHT22;5317;49.048;8.468;2023-01-01T10:56:18;22.10;49.40
10538;DHT22;5317;49.048;8.468;2023-01-01T10:58:46;22.20;49.50
10538;DHT22;5317;49.048;8.468;2023-01-01T11:01:20;22.30;49.30
10538;DHT22;5317;49.048;8.468;2023-01-01T11:03:56;22.20;48.70
10538;DHT22;5317;49.048;8.468;2023-01-01T11:06:26;22.20;48.50
10538;DHT22;5317;49.048;8.468;2023-01-01T11:08:55;22.10;48.80
10538;DHT22;5317;49.048;8.468;2023-01-01T11:11:27;21.80;47.90
10538;DHT22;5317;49.048;8.468;2023-01-01T11:13:56;21.60;48.30
10538;DHT22;5317;49.048;8.468;2023-01-01T11:16:24;21.40;49.00
10538;DHT22;5317;49.048;8.468;2023-01-01T11:19:00;21.40;48.80
10538;DHT22;5317;49.048;8.468;2023-01-01T11:21:29;21.40;48.40
10538;DHT22;5317;49.048;8.468;2023-01-01T11:24:16;21.40;48.60
10538;DHT22;5317;49.048;8.468;2023-01-01T11:26:44;21.50;48.30
10538;DHT22;5317;49.048;8.468;2023-01-01T11:29:20;21.80;48.40
10538;DHT22;5317;49.048;8.468;2023-01-01T11:31:50;21.90;47.80
10538;DHT22;5317;49.048;8.468;2023-01-01T11:34:36;22.20;47.90
10538;DHT22;5317;49.048;8.468;2023-01-01T11:37:24;22.40;46.80
10538;DHT22;5317;49.048;8.468;2023-01-01T11:39:53;22.40;46.20
10538;DHT22;5317;49.048;8.468;2023-01-01T11:42:23;22.50;46.40
10538;DHT22;5317;49.048;8.468;2023-01-01T11:44:52;22.70;46.40
10538;DHT22;5317;49.048;8.468;2023-01-01T11:47:24;23.00;46.20
10538;DHT22;5317;49.048;8.468;2023-01-01T11:49:58;23.20;45.30
10538;DHT22;5317;49.048;8.468;2023-01-01T11:52:34;23.10;44.40
10538;DHT22;5317;49.048;8.468;2023-01-01T11:55:07;23.30;45.00
10538;DHT22;5317;49.048;8.468;2023-01-01T11:57:38;23.50;44.20
10538;DHT22;5317;49.048;8.468;2023-01-01T12:00:13;23.70;44.10
10538;DHT22;5317;49.048;8.468;2023-01-01T12:02:47;23.80;43.50
10538;DHT22;5317;49.048;8.468;2023-01-01T12:05:19;23.70;42.70
10538;DHT22;5317;49.048;8.468;2023-01-01T12:07:49;23.70;43.40
10538;DHT22;5317;49.048;8.468;2023-01-01T12:10:21;23.80;43.50
10538;DHT22;5317;49.048;8.468;2023-01-01T12:12:51;24.00;42.60
10538;DHT22;5317;49.048;8.468;2023-01-01T12:15:23;24.20;42.10
10538;DHT22;5317;49.048;8.468;2023-01-01T12:17:59;24.40;41.70
10538;DHT22;5317;49.048;8.468;2023-01-01T12:20:30;24.40;41.20
10538;DHT22;5317;49.048;8.468;2023-01-01T12:23:00;24.80;41.40
10538;DHT22;5317;49.048;8.468;2023-01-01T12:25:34;25.10;40.10
10538;DHT22;5317;49.048;8.468;2023-01-01T12:28:10;25.30;39.80
10538;DHT22;5317;49.048;8.468;2023-01-01T12:30:45;25.70;39.20
10538;DHT22;5317;49.048;8.468;2023-01-01T12:33:27;26.10;39.00
10538;DHT22;5317;49.048;8.468;2023-01-01T12:36:06;26.60;38.00
10538;DHT22;5317;49.048;8.468;2023-01-01T12:38:55;27.00;37.30
10538;DHT22;5317;49.048;8.468;2023-01-01T12:41:32;26.90;37.40
10538;DHT22;5317;49.048;8.468;2023-01-01T12:44:14;27.00;37.70
10538;DHT22;5317;49.048;8.468;2023-01-01T12:46:47;26.70;37.50
10538;DHT22;5317;49.048;8.468;2023-01-01T12:49:26;27.10;37.50
10538;DHT22;5317;49.048;8.468;2023-01-01T12:52:09;27.30;37.00
10538;DHT22;5317;49.048;8.468;2023-01-01T12:55:19;27.20;36.90
10538;DHT22;5317;49.048;8.468;2023-01-01T12:57:50;27.50;36.00
10538;DHT22;5317;49.048;8.468;2023-01-01T13:00:22;28.00;36.50
10538;DHT22;5317;49.048;8.468;2023-01-01T13:02:51;28.20;36.30
10538;DHT22;5317;49.048;8.468;2023-01-01T13:05:23;28.00;36.40
10538;DHT22;5317;49.048;8.468;2023-01-01T13:07:53;27.40;36.40
10538;DHT22;5317;49.048;8.468;2023-01-01T13:10:29;26.70;36.60
10538;DHT22;5317;49.048;8.468;2023-01-01T13:12:59;26.00;37.30
10538;DHT22;5317;49.048;8.468;2023-01-01T13:15:49;25.60;38.30
10538;DHT22;5317;49.048;8.468;2023-01-01T13:18:23;25.50;38.30
10538;DHT22;5317;49.048;8.468;2023-01-01T13:20:56;25.10;39.00
10538;DHT22;5317;49.048;8.468;2023-01-01T13:23:45;24.90;39.20
10538;DHT22;5317;49.048;8.468;2023-01-01T13:26:36;24.50;39.70
10538;DHT22;5317;49.048;8.468;2023-01-01T13:29:34;24.30;39.90
10538;DHT22;5317;49.048;8.468;2023-01-01T13:32:09;24.10;40.10
10538;DHT22;5317;49.048;8.468;2023-01-01T13:37:54;23.60;40.60
10538;DHT22;5317;49.048;8.468;2023-01-01T13:40:51;23.40;41.00
10538;DHT22;5317;49.048;8.468;2023-01-01T13:43:29;23.20;40.80
10538;DHT22;5317;49.048;8.468;2023-01-01T13:45:58;22.90;41.30
10538;DHT22;5317;49.048;8.468;2023-01-01T13:48:46;22.80;41.70
10538;DHT22;5317;49.048;8.468;2023-01-01T13:51:50;22.60;42.00
10538;DHT22;5317;49.048;8.468;2023-01-01T14:00:18;22.40;42.40
10538;DHT22;5317;49.048;8.468;2023-01-01T14:02:48;22.40;42.40
10538;DHT22;5317;49.048;8.468;2023-01-01T14:05:28;22.40;42.80
10538;DHT22;5317;49.048;8.468;2023-01-01T14:07:55;22.40;42.80
10538;DHT22;5317;49.048;8.468;2023-01-01T14:10:25;22.40;42.90
10538;DHT22;5317;49.048;8.468;2023-01-01T14:12:55;22.50;43.10
10538;DHT22;5317;49.048;8.468;2023-01-01T14:15:27;22.50;43.10
10538;DHT22;5317;49.048;8.468;2023-01-01T14:17:57;22.50;43.20
10538;DHT22;5317;49.048;8.468;2023-01-01T14:20:30;22.50;43.10
10538;DHT22;5317;49.048;8.468;2023-01-01T14:23:03;22.40;43.10
10538;DHT22;5317;49.048;8.468;2023-01-01T14:25:31;22.40;43.20
10538;DHT22;5317;49.048;8.468;2023-01-01T14:27:58;22.40;43.50
10538;DHT22;5317;49.048;8.468;2023-01-01T14:30:29;22.40;43.50
10538;DHT22;5317;49.048;8.468;2023-01-01T14:32:57;22.40;43.50
10538;DHT22;5317;49.048;8.468;2023-01-01T14:35:25;22.50;43.40
10538;DHT22;5317;49.048;8.468;2023-01-01T14:37:52;22.50;43.20
10538;DHT22;5317;49.048;8.468;2023-01-01T14:40:20;22.50;43.20
10538;DHT22;5317;49.048;8.468;2023-01-01T14:42:57;22.50;43.40
10538;DHT22;5317;49.048;8.468;2023-01-01T14:45:28;22.50;43.50
10538;DHT22;5317;49.048;8.468;2023-01-01T14:47:56;22.50;43.50
10538;DHT22;5317;49.048;8.468;2023-01-01T14:50:25;22.60;43.80
10538;DHT22;5317;49.048;8.468;2023-01-01T14:52:56;22.60;44.00
10538;DHT22;5317;49.048;8.468;2023-01-01T14:55:25;22.60;44.00
10538;DHT22;5317;49.048;8.468;2023-01-01T14:57:57;22.60;44.10
10538;DHT22;5317;49.048;8.468;2023-01-01T15:00:28;22.60;44.10
10538;DHT22;5317;49.048;8.468;2023-01-01T15:03:04;22.60;44.00
10538;DHT22;5317;49.048;8.468;2023-01-01T15:05:34;22.50;44.30
10538;DHT22;5317;49.048;8.468;2023-01-01T15:08:03;22.40;44.60
10538;DHT22;5317;49.048;8.468;2023-01-01T15:10:33;22.40;44.60
10538;DHT22;5317;49.048;8.468;2023-01-01T15:13:04;22.30;45.00
10538;DHT22;5317;49.048;8.468;2023-01-01T15:15:36;22.20;45.30
10538;DHT22;5317;49.048;8.468;2023-01-01T15:18:05;22.20;45.60
10538;DHT22;5317;49.048;8.468;2023-01-01T15:20:32;22.10;45.80
10538;DHT22;5317;49.048;8.468;2023-01-01T15:23:02;22.00;46.20
10538;DHT22;5317;49.048;8.468;2023-01-01T15:25:29;21.90;45.70
10538;DHT22;5317;49.048;8.468;2023-01-01T15:28:00;21.90;45.90
10538;DHT22;5317;49.048;8.468;2023-01-01T15:30:30;21.80;46.20
10538;DHT22;5317;49.048;8.468;2023-01-01T15:33:06;21.80;46.30
10538;DHT22;5317;49.048;8.468;2023-01-01T15:35:35;21.70;46.80
10538;DHT22;5317;49.048;8.468;2023-01-01T15:38:09;21.70;47.30
10538;DHT22;5317;49.048;8.468;2023-01-01T15:40:37;21.60;47.90
10538;DHT22;5317;49.048;8.468;2023-01-01T15:43:19;21.50;48.20
10538;DHT22;5317;49.048;8.468;2023-01-01T15:45:54;21.40;48.50
10538;DHT22;5317;49.048;8.468;2023-01-01T15:48:31;21.40;48.90
10538;DHT22;5317;49.048;8.468;2023-01-01T15:51:02;21.30;48.70
10538;DHT22;5317;49.048;8.468;2023-01-01T15:53:46;21.20;48.70
10538;DHT22;5317;49.048;8.468;2023-01-01T15:56:14;21.10;48.50
10538;DHT22;5317;49.048;8.468;2023-01-01T15:58:45;21.10;48.10
10538;DHT22;5317;49.048;8.468;2023-01-01T16:01:19;21.00;48.50
10538;DHT22;5317;49.048;8.468;2023-01-01T16:03:50;20.90;48.90
10538;DHT22;5317;49.048;8.468;2023-01-01T16:06:19;20.80;48.90
10538;DHT22;5317;49.048;8.468;2023-01-01T16:08:46;20.70;49.30
10538;DHT22;5317;49.048;8.468;2023-01-01T16:11:13;20.70;49.20
10538;DHT22;5317;49.048;8.468;2023-01-01T16:13:40;20.60;49.50
10538;DHT22;5317;49.048;8.468;2023-01-01T16:16:22;20.50;50.00
10538;DHT22;5317;49.048;8.468;2023-01-01T16:18:51;20.40;50.10
10538;DHT22;5317;49.048;8.468;2023-01-01T16:21:20;20.40;49.90